• Join FlightAware (Why Join?)
  • Login
  • US Flag 
02:13AM EDT


 

Airport Tracker/Info


-or-


 

Live Flight TrackerFlight Track Log ✈ JSA831 ✈ 18-Feb-2014 ✈ WSSS / SIN - ZSHC / HGH

Flight Track Log - Related Links

Times and Time Zones

All times are in EST time to prevent confusion due to time zone crossing. See the JSA831 flight status page for this flight to view local times or setup timezone preferences in your user account.

Time Position Orientation Groundspeed Altitude Reporting Facility
EST Latitude Longitude Course Direction KTS MPH feet Rate Location/Type
05:58AM 1.4463 104.0348 22° Northeast 248 285 3,800  Level FlightAware ADS-B (WSAT / TGA)
06:00AM 1.5689 104.0136 350° North 311 358 4,800 1,080 Climbing FlightAware ADS-B (WSAT / TGA)
06:01AM 1.6603 103.9637 331° Northwest 332 382 6,800 1,920 Climbing FlightAware ADS-B (WSAT / TGA)
06:01AM 1.6690 103.9590 332° Northwest 337 388 7,500 2,460 Climbing FlightAware ADS-B (WSAT / TGA)
06:01AM 1.7008 103.9420 332° Northwest 342 394 8,100 2,400 Climbing FlightAware ADS-B (WSAT / TGA)
06:02AM 1.7218 103.9307 332° Northwest 345 397 8,700 2,700 Climbing FlightAware ADS-B (WSAT / TGA)
06:02AM 1.7503 103.9159 333° Northwest 346 398 9,700 2,880 Climbing FlightAware ADS-B (WSAT / TGA)
06:02AM 1.7596 103.9127 341° North 347 399 9,900 1,500 Climbing FlightAware ADS-B (WSAT / TGA)
06:02AM 1.7761 103.9101 351° North 358 412 10,200 1,740 Climbing FlightAware ADS-B (WSAT / TGA)
06:03AM 1.8515 103.9056 357° North 372 428 11,500 1,920 Climbing FlightAware ADS-B (WSAT / TGA)
06:04AM 1.9054 103.9025 357° North 381 438 12,500 2,160 Climbing FlightAware ADS-B (WSAT / TGA)
06:04AM 1.9571 103.8993 356° North 380 437 13,700 2,100 Climbing FlightAware ADS-B (WSAT / TGA)
06:04AM 2.0105 103.8970 358° North 387 445 14,600 1,800 Climbing FlightAware ADS-B (WSAT / TGA)
06:05AM 2.0290 103.9010 12° North 390 449 14,900 1,380 Climbing FlightAware ADS-B (WSAT / TGA)
06:05AM 2.0428 103.9070 23° Northeast 393 452 15,100 1,440 Climbing FlightAware ADS-B (WSAT / TGA)
06:05AM 2.1016 103.9407 30° Northeast 404 465 16,000 120 Climbing FlightAware ADS-B (WSAT / TGA)
06:08AM 2.2831 104.0350 27° Northeast  Level Estimated
06:09AM 2.3696 104.0799 27° Northeast  Level Estimated
06:10AM 2.4560 104.1248 27° Northeast  Level Estimated
06:11AM 2.5425 104.1697 27° Northeast  Level Estimated
06:12AM 2.6289 104.2146 27° Northeast  Level Estimated
06:13AM 2.7154 104.2596 27° Northeast  Level Estimated
06:14AM 2.8018 104.3045 27° Northeast  Level Estimated
06:15AM 2.8883 104.3494 27° Northeast  Level Estimated
06:16AM 2.9747 104.3944 27° Northeast  Level Estimated
06:17AM 3.0612 104.4393 27° Northeast  Level Estimated
06:18AM 3.1476 104.4843 27° Northeast  Level Estimated
06:19AM 3.2340 104.5292 27° Northeast  Level Estimated
06:20AM 3.3205 104.5742 27° Northeast  Level Estimated
06:21AM 3.4069 104.6192 27° Northeast  Level Estimated
06:22AM 3.4933 104.6642 27° Northeast  Level Estimated
06:23AM 3.5797 104.7092 27° Northeast  Level Estimated
06:24AM 3.6662 104.7542 27° Northeast  Level Estimated
06:25AM 3.7526 104.7992 27° Northeast  Level Estimated
06:26AM 3.8390 104.8442 27° Northeast  Level Estimated
06:27AM 3.9254 104.8892 27° Northeast  Level Estimated
06:28AM 4.0118 104.9343 27° Northeast  Level Estimated
06:29AM 4.0982 104.9793 27° Northeast  Level Estimated
06:30AM 4.1847 105.0244 27° Northeast  Level Estimated
06:31AM 4.2711 105.0695 27° Northeast  Level Estimated
06:32AM 4.3575 105.1145 27° Northeast  Level Estimated
06:33AM 4.4439 105.1596 27° Northeast  Level Estimated
06:34AM 4.5303 105.2047 27° Northeast  Level Estimated
06:35AM 4.6167 105.2498 27° Northeast  Level Estimated
06:36AM 4.7031 105.2950 27° Northeast  Level Estimated
06:37AM 4.7895 105.3401 28° Northeast  Level Estimated
06:38AM 4.8758 105.3852 28° Northeast  Level Estimated
06:39AM 4.9622 105.4304 28° Northeast  Level Estimated
06:40AM 5.0486 105.4756 28° Northeast  Level Estimated
06:41AM 5.1350 105.5208 28° Northeast  Level Estimated
06:42AM 5.2214 105.5659 28° Northeast  Level Estimated
06:43AM 5.3077 105.6112 28° Northeast  Level Estimated
06:44AM 5.3941 105.6564 28° Northeast  Level Estimated
06:45AM 5.4805 105.7016 28° Northeast  Level Estimated
06:46AM 5.5668 105.7468 28° Northeast  Level Estimated
06:47AM 5.6532 105.7921 28° Northeast  Level Estimated
06:48AM 5.7396 105.8374 28° Northeast  Level Estimated
06:49AM 5.8259 105.8827 28° Northeast  Level Estimated
06:50AM 5.9123 105.9280 28° Northeast  Level Estimated
06:51AM 5.9986 105.9733 28° Northeast  Level Estimated
06:52AM 6.0849 106.0186 28° Northeast  Level Estimated
06:53AM 6.1713 106.0639 28° Northeast  Level Estimated
06:54AM 6.2576 106.1093 28° Northeast  Level Estimated
06:55AM 6.3439 106.1547 28° Northeast  Level Estimated
06:56AM 6.4303 106.2001 28° Northeast  Level Estimated
06:57AM 6.5166 106.2455 28° Northeast  Level Estimated
06:58AM 6.6029 106.2909 28° Northeast  Level Estimated
06:59AM 6.6892 106.3363 28° Northeast  Level Estimated
07:00AM 6.7755 106.3818 28° Northeast  Level Estimated
07:01AM 6.8618 106.4272 28° Northeast  Level Estimated
07:02AM 6.9481 106.4727 28° Northeast  Level Estimated
07:03AM 7.0344 106.5182 28° Northeast  Level Estimated
07:04AM 7.1207 106.5637 28° Northeast  Level Estimated
07:05AM 7.2070 106.6093 28° Northeast  Level Estimated
07:06AM 7.2933 106.6548 28° Northeast  Level Estimated
07:07AM 7.3796 106.7004 28° Northeast  Level Estimated
07:08AM 7.4658 106.7460 28° Northeast  Level Estimated
07:09AM 7.5521 106.7916 28° Northeast  Level Estimated
07:10AM 7.6384 106.8372 28° Northeast  Level Estimated
07:11AM 7.7246 106.8828 28° Northeast  Level Estimated
07:12AM 7.8109 106.9285 28° Northeast  Level Estimated
07:13AM 7.8971 106.9742 28° Northeast  Level Estimated
07:14AM 7.9834 107.0199 28° Northeast  Level Estimated
07:15AM 8.0696 107.0656 28° Northeast  Level Estimated
07:16AM 8.1558 107.1113 28° Northeast  Level Estimated
07:17AM 8.2421 107.1571 28° Northeast  Level Estimated
07:18AM 8.3283 107.2029 28° Northeast  Level Estimated
07:19AM 8.4145 107.2487 28° Northeast  Level Estimated
07:20AM 8.5007 107.2945 28° Northeast  Level Estimated
07:21AM 8.5869 107.3403 28° Northeast  Level Estimated
07:22AM 8.6731 107.3862 28° Northeast  Level Estimated
07:23AM 8.7593 107.4321 28° Northeast  Level Estimated
07:24AM 8.8455 107.4780 28° Northeast  Level Estimated
07:25AM 8.9317 107.5239 28° Northeast  Level Estimated
07:26AM 9.0179 107.5698 28° Northeast  Level Estimated
07:27AM 9.1041 107.6158 28° Northeast  Level Estimated
07:28AM 9.1902 107.6618 28° Northeast  Level Estimated
07:29AM 9.2764 107.7078 28° Northeast  Level Estimated
07:30AM 9.3625 107.7538 28° Northeast  Level Estimated
07:31AM 9.4487 107.7999 28° Northeast  Level Estimated
07:32AM 9.5349 107.8460 28° Northeast  Level Estimated
07:33AM 9.6210 107.8921 28° Northeast  Level Estimated
07:34AM 9.7071 107.9382 28° Northeast  Level Estimated
07:35AM 9.7933 107.9844 28° Northeast  Level Estimated
07:36AM 9.8794 108.0305 28° Northeast  Level Estimated
07:37AM 9.9655 108.0767 28° Northeast  Level Estimated
07:38AM 10.0516 108.1229 28° Northeast  Level Estimated
07:39AM 10.1377 108.1692 28° Northeast  Level Estimated
07:40AM 10.2238 108.2155 28° Northeast  Level Estimated
07:41AM 10.3099 108.2618 28° Northeast  Level Estimated
07:42AM 10.3960 108.3081 28° Northeast  Level Estimated
07:43AM 10.4820 108.3544 28° Northeast  Level Estimated
07:44AM 10.5681 108.4008 28° Northeast  Level Estimated
07:45AM 10.6542 108.4472 28° Northeast  Level Estimated
07:46AM 10.7402 108.4936 28° Northeast  Level Estimated
07:47AM 10.8263 108.5401 28° Northeast  Level Estimated
07:48AM 10.9123 108.5866 28° Northeast  Level Estimated
07:49AM 10.9984 108.6331 28° Northeast  Level Estimated
07:50AM 11.0844 108.6796 28° Northeast  Level Estimated
07:51AM 11.1704 108.7262 28° Northeast  Level Estimated
07:52AM 11.2564 108.7728 28° Northeast  Level Estimated
07:53AM 11.3424 108.8194 28° Northeast  Level Estimated
07:54AM 11.4284 108.8660 28° Northeast  Level Estimated
07:55AM 11.5144 108.9127 28° Northeast  Level Estimated
07:56AM 11.6004 108.9594 28° Northeast  Level Estimated
07:57AM 11.6864 109.0061 28° Northeast  Level Estimated
07:58AM 11.7723 109.0529 28° Northeast  Level Estimated
07:59AM 11.8583 109.0997 28° Northeast  Level Estimated
08:00AM 11.9443 109.1465 28° Northeast  Level Estimated
08:01AM 12.0302 109.1933 28° Northeast  Level Estimated
08:02AM 12.1161 109.2402 28° Northeast  Level Estimated
08:03AM 12.2021 109.2871 28° Northeast  Level Estimated
08:04AM 12.2880 109.3341 28° Northeast  Level Estimated
08:05AM 12.3739 109.3810 28° Northeast  Level Estimated
08:06AM 12.4598 109.4280 28° Northeast  Level Estimated
08:07AM 12.5457 109.4751 28° Northeast  Level Estimated
08:08AM 12.6316 109.5221 28° Northeast  Level Estimated
08:09AM 12.7175 109.5692 28° Northeast  Level Estimated
08:10AM 12.8034 109.6163 28° Northeast  Level Estimated
08:11AM 12.8892 109.6635 28° Northeast  Level Estimated
08:12AM 12.9751 109.7107 28° Northeast  Level Estimated
08:13AM 13.0609 109.7579 28° Northeast  Level Estimated
08:14AM 13.1468 109.8052 28° Northeast  Level Estimated
08:15AM 13.2326 109.8524 28° Northeast  Level Estimated
08:16AM 13.3184 109.8998 28° Northeast  Level Estimated
08:17AM 13.4042 109.9471 28° Northeast  Level Estimated
08:18AM 13.4900 109.9945 28° Northeast  Level Estimated
08:19AM 13.5758 110.0419 28° Northeast  Level Estimated
08:20AM 13.6616 110.0894 28° Northeast  Level Estimated
08:21AM 13.7474 110.1369 28° Northeast  Level Estimated
08:22AM 13.8332 110.1844 28° Northeast  Level Estimated
08:23AM 13.9189 110.2320 28° Northeast  Level Estimated
08:24AM 14.0047 110.2796 28° Northeast  Level Estimated
08:25AM 14.0904 110.3272 28° Northeast  Level Estimated
08:26AM 14.1761 110.3749 28° Northeast  Level Estimated
08:27AM 14.2619 110.4226 28° Northeast  Level Estimated
08:28AM 14.3476 110.4703 28° Northeast  Level Estimated
08:29AM 14.4333 110.5181 28° Northeast  Level Estimated
08:30AM 14.5190 110.5659 28° Northeast  Level Estimated
08:31AM 14.6046 110.6137 28° Northeast  Level Estimated
08:32AM 14.6903 110.6616 28° Northeast  Level Estimated
08:33AM 14.7760 110.7096 28° Northeast  Level Estimated
08:34AM 14.8616 110.7575 28° Northeast  Level Estimated
08:35AM 14.9473 110.8055 28° Northeast  Level Estimated
08:36AM 15.0329 110.8536 28° Northeast  Level Estimated
08:37AM 15.1185 110.9016 28° Northeast  Level Estimated
08:38AM 15.2041 110.9498 28° Northeast  Level Estimated
08:39AM 15.2897 110.9979 28° Northeast  Level Estimated
08:40AM 15.3753 111.0461 28° Northeast  Level Estimated
08:41AM 15.4609 111.0944 29° Northeast  Level Estimated
08:42AM 15.5465 111.1426 29° Northeast  Level Estimated
08:43AM 15.6320 111.1909 29° Northeast  Level Estimated
08:44AM 15.7176 111.2393 29° Northeast  Level Estimated
08:45AM 15.8031 111.2877 29° Northeast  Level Estimated
08:46AM 15.8886 111.3361 29° Northeast  Level Estimated
08:47AM 15.9742 111.3846 29° Northeast  Level Estimated
08:47AM 19.5166 114.9717 29° Northeast 488 562 36,000  Level FlightAware ADS-B (VHSK)
08:47AM 19.5780 115.0029 26° Northeast 489 563 36,000  Level FlightAware ADS-B (VHSK)
08:48AM 19.6361 115.0324 26° Northeast 489 563 36,000  Level FlightAware ADS-B (VHSK)
08:48AM 19.6987 115.0643 26° Northeast 491 565 36,000  Level FlightAware ADS-B (VHSK)
08:49AM 19.7621 115.0965 26° Northeast 491 565 36,000  Level FlightAware ADS-B (VHSK)
08:49AM 19.7983 115.1150 26° Northeast 491 565 36,000  Level FlightAware ADS-B (VHSK)
08:50AM 19.8638 115.1484 26° Northeast 491 565 36,000  Level FlightAware ADS-B (VHSK)
08:50AM 19.9429 115.1888 26° Northeast 491 565 36,000  Level FlightAware ADS-B (VHSK)
08:51AM 20.0067 115.2213 26° Northeast 491 565 36,000  Level FlightAware ADS-B (VHSK)
08:51AM 20.0666 115.2519 26° Northeast 491 565 36,000  Level FlightAware ADS-B (VHSK)
08:52AM 20.0914 115.2647 26° Northeast 491 565 36,000  Level FlightAware ADS-B (VHSK)
08:52AM 20.1932 115.3170 26° Northeast 492 566 36,000  Level FlightAware ADS-B (VHSK)
08:53AM 20.2536 115.3479 26° Northeast 492 566 36,000  Level FlightAware ADS-B (VHSK)
08:53AM 20.3161 115.3788 25° Northeast 491 565 36,000  Level FlightAware ADS-B (VHSK)
08:54AM 20.3637 115.4009 23° Northeast 491 565 36,000  Level FlightAware ADS-B (VHSK)
08:55AM 20.4637 115.4473 24° Northeast 491 565 36,000 -180 Level FlightAware ADS-B (VHSK)
09:11AM 22.6310 116.1634 24° Northeast 499 574 33,000 -180 Descending FlightAware ADS-B (VHSK)
09:12AM 22.7477 116.2277 27° Northeast 529 609 33,000  Level FlightAware ADS-B (VHSK)
09:13AM 22.8249 116.3161 47° Northeast 530 610 33,100 60 Climbing FlightAware ADS-B (VHSK)
09:14AM 22.8900 116.3785 41° Northeast 521 600 33,100  Level FlightAware ADS-B (VHSK)
09:15AM 23.0528 116.5131 37° Northeast 521 600 33,100  Level FlightAware ADS-B (VHSK)
09:16AM 23.1300 116.5772 37° Northeast 521 600 33,100  Level FlightAware ADS-B (VHSK)
09:17AM 23.2422 116.6703 37° Northeast 521 600 33,100  Level FlightAware ADS-B (VHSK)
09:18AM 23.3468 116.7574 37° Northeast 524 603 33,100  Level FlightAware ADS-B (VHSK)
09:18AM 23.4368 116.8417 41° Northeast 532 612 33,100  Level FlightAware ADS-B (VHSK)
09:19AM 23.4908 116.9031 46° Northeast 535 616 33,100  Level FlightAware ADS-B (VHSK)
09:19AM 23.5443 116.9638 46° Northeast 535 616 33,100  Level FlightAware ADS-B (VHSK)
09:23AM 23.9518 117.4253 24° Northeast 537 618 33,100  Level FlightAware ADS-B (VHSK)
09:35AM 25.1557 118.7787 23° Northeast 550 633 33,100  Level FlightAware ADS-B (RCPO)
09:35AM 25.2090 118.8410 47° Northeast 550 633 33,100  Level FlightAware ADS-B (RCPO)
09:36AM 25.2784 118.9222 47° Northeast 550 633 33,100  Level FlightAware ADS-B (RCPO)
09:36AM 25.3368 118.9907 47° Northeast 550 633 33,100  Level FlightAware ADS-B (RCPO)
09:37AM 25.3862 119.0487 47° Northeast 550 633 33,100  Level FlightAware ADS-B (RCPO)
09:39AM 25.6403 119.3359 14° North 542 624 33,100 -300 Level FlightAware ADS-B (RCPO)
09:40AM 25.6226 119.1134 14° North  Level Estimated
09:41AM 25.8175 119.4595 32° Northeast 523 602 32,000  Level FlightAware ADS-B (RCPO)
09:43AM 25.9929 119.4967 11° North  Level Estimated
09:44AM 26.0885 119.5170 11° North  Level Estimated
09:45AM 26.1842 119.5374 11° North  Level Estimated
09:46AM 26.2799 119.5578 11° North  Level Estimated
09:47AM 26.3755 119.5782 11° North  Level Estimated
09:48AM 26.4712 119.5986 11° North  Level Estimated
09:49AM 26.5669 119.6191 11° North  Level Estimated
09:50AM 26.6625 119.6397 11° North  Level Estimated
09:51AM 26.7582 119.6602 11° North  Level Estimated
09:52AM 26.8538 119.6808 11° North  Level Estimated
09:53AM 26.9495 119.7014 11° North  Level Estimated
09:54AM 27.0451 119.7221 11° North  Level Estimated
09:55AM 27.1407 119.7428 11° North  Level Estimated
09:56AM 27.2364 119.7635 11° North  Level Estimated
09:57AM 27.3320 119.7843 11° North  Level Estimated
09:58AM 27.4276 119.8051 11° North  Level Estimated
09:59AM 27.5233 119.8260 11° North  Level Estimated
10:00AM 27.6189 119.8468 11° North  Level Estimated
10:01AM 27.7145 119.8677 11° North  Level Estimated
10:02AM 27.8101 119.8887 11° North  Level Estimated
10:03AM 27.9058 119.9097 11° North  Level Estimated
10:04AM 28.0014 119.9307 11° North  Level Estimated
10:05AM 28.0970 119.9518 11° North  Level Estimated
10:06AM 28.1926 119.9729 11° North  Level Estimated
10:07AM 28.2882 119.9940 11° North  Level Estimated
10:08AM 28.3838 120.0152 11° North  Level Estimated
10:09AM 28.4794 120.0364 11° North  Level Estimated
10:10AM 28.5750 120.0576 11° North  Level Estimated
10:11AM 28.6706 120.0789 11° North  Level Estimated
10:12AM 28.7661 120.1003 11° North  Level Estimated
10:13AM 28.8617 120.1216 11° North  Level Estimated
10:14AM 28.9573 120.1431 11° North  Level Estimated
10:15AM 29.0529 120.1645 11° North  Level Estimated
10:16AM 29.1485 120.1860 11° North  Level Estimated
10:17AM 29.2440 120.2075 11° North  Level Estimated
10:18AM 29.3396 120.2291 11° North  Level Estimated
10:19AM 29.4352 120.2507 11° North  Level Estimated
10:20AM 29.5307 120.2723 11° North  Level Estimated
10:21AM 29.6263 120.2940 11° North  Level Estimated
10:22AM 29.7218 120.3158 11° North  Level Estimated
10:23AM 29.8174 120.3375 11° North  Level Estimated
10:24AM 29.9129 120.3594 11° North  Level Estimated
10:25AM 30.0085 120.3812 11° North  Level Estimated